Rick Pumphrey — WDF8497 — position and weather

sailwx.info

Track history (hours):
 
Tides and Currents Weather Stations Pressure Air Temp Water Temp Dewpoint Dewpoint Depression Visibility Wind Speed Wind Dir Waves Ship Positions

Rick Pumphrey

Owner: Blessey Enterprises, Inc., Harahan, LA. More information available from US FCC via Universal Licensing System and Coast Guard Vessel Documentation Center.

Last reported at 2018-May-20 10:15 UTC. Time now 2018-May-20 17:49 UTC.
Position N 29°44' W 095°01'.

; draft 2.4 m.

Type: Tug. MMSI: 367495480.

Date/timePositionNaut miles runAvg speedWind from/ knotsBaromVisibWave heightAir tempDewpointWater temp
2018-May-20 10:15N 29°44' W 095°01'1 3.3
2018-May-20 09:58N 29°44' W 095°02'3 0.2
2018-May-19 14:11N 29°45' W 095°06'5 3.3
2018-May-19 12:47N 29°43' W 095°01'1 4.0
2018-May-19 12:30N 29°42' W 095°02'0 0.0
2018-May-19 07:47N 29°42' W 095°02'0 0.0
2018-May-19 07:17N 29°42' W 095°02'0 0.0
2018-May-18 21:43N 29°42' W 095°02'0 0.0
2018-May-18 21:29N 29°42' W 095°02'0 0.0
2018-May-18 20:57N 29°42' W 095°02'0 0.0
2018-May-18 11:09N 29°42' W 095°02'0 0.0
2018-May-18 10:30N 29°42' W 095°02'0 0.9
2018-May-18 10:00N 29°43' W 095°03'0 0.7
2018-May-18 09:30N 29°43' W 095°03'0 0.0
2018-May-18 09:00N 29°43' W 095°03'0 0.0
2018-May-18 08:30N 29°43' W 095°03'0 0.0
2018-May-18 08:00N 29°43' W 095°03'0 0.0
2018-May-18 07:30N 29°43' W 095°03'0 0.0
2018-May-18 06:57N 29°43' W 095°03'0 0.0
2018-May-18 06:30N 29°43' W 095°03'0 0.0
2018-May-18 06:00N 29°43' W 095°03'0 0.0
2018-May-18 05:29N 29°43' W 095°03'0 0.0
2018-May-18 05:00N 29°43' W 095°03'0 0.0
2018-May-18 04:30N 29°43' W 095°03'0 0.0
2018-May-18 04:00N 29°43' W 095°03'0 0.0
2018-May-18 03:30N 29°43' W 095°03'0 0.0
2018-May-18 03:00N 29°43' W 095°03'0 0.0
2018-May-18 02:30N 29°43' W 095°03'0 0.0
2018-May-18 02:00N 29°43' W 095°03'0 0.1
2018-May-18 00:53N 29°43' W 095°03'2 0.2
2018-May-17 14:28N 29°42' W 095°01'2 4.8
2018-May-17 14:00N 29°44' W 095°03'3 6.3
2018-May-17 13:30N 29°47' W 095°04'0 0.9
2018-May-17 13:00N 29°47' W 095°05'0 0.0
2018-May-17 12:29N 29°47' W 095°05'0 0.0
2018-May-17 11:56N 29°47' W 095°05'0 0.0
2018-May-17 11:00N 29°47' W 095°05'0 0.2
2018-May-17 10:30N 29°47' W 095°05'0 0.0
2018-May-17 10:00N 29°47' W 095°05'0 0.0
2018-May-17 09:30N 29°47' W 095°05'0 0.0
2018-May-17 09:00N 29°47' W 095°05'0 0.0
2018-May-17 08:30N 29°47' W 095°05'0 0.0
2018-May-17 08:00N 29°47' W 095°05'0 0.0
2018-May-17 06:46N 29°47' W 095°05'0 0.0
2018-May-17 06:30N 29°47' W 095°05'0 0.0
2018-May-17 05:58N 29°47' W 095°05'0 0.0
2018-May-17 05:25N 29°47' W 095°05'0 0.3
2018-May-17 05:00N 29°47' W 095°05'0 0.2
2018-May-17 04:29N 29°47' W 095°05'0 0.1
2018-May-17 03:59N 29°47' W 095°05'0 0.1
2018-May-17 03:30N 29°47' W 095°05'0 0.0
2018-May-17 03:00N 29°47' W 095°05'0 0.0
2018-May-17 02:30N 29°47' W 095°05'0 0.0
2018-May-17 02:00N 29°47' W 095°05'0 0.0
2018-May-17 01:30N 29°47' W 095°05'5 0.5
2018-May-16 15:22N 29°43' W 095°01'1 3.3
2018-May-16 14:58N 29°42' W 095°02'0 0.0
2018-May-16 14:30N 29°42' W 095°02'0 0.0
2018-May-16 13:58N 29°42' W 095°02'0 0.0
2018-May-16 13:30N 29°42' W 095°02'0 0.0
2018-May-16 12:56N 29°42' W 095°02'0 0.0
2018-May-16 12:30N 29°42' W 095°02'0 0.0
2018-May-16 12:00N 29°42' W 095°02'0 0.0
2018-May-16 11:30N 29°42' W 095°02'0 0.0
2018-May-16 11:00N 29°42' W 095°02'0 0.0
2018-May-16 10:30N 29°42' W 095°02'0 0.0
2018-May-16 10:00N 29°42' W 095°02'0 0.0
2018-May-16 09:30N 29°42' W 095°02'0 0.0
2018-May-16 09:00N 29°42' W 095°02'0 0.0
2018-May-16 08:30N 29°42' W 095°02'0 0.0
2018-May-16 08:00N 29°42' W 095°02'0 0.0
2018-May-16 07:30N 29°42' W 095°02'0 0.0
2018-May-16 07:00N 29°42' W 095°02'0 0.0
2018-May-16 06:30N 29°42' W 095°02'0 0.0
2018-May-16 06:00N 29°42' W 095°02'0 0.0
2018-May-16 05:30N 29°42' W 095°02'0 0.0
2018-May-16 05:00N 29°42' W 095°02'0 0.0
2018-May-16 04:30N 29°42' W 095°02'0 0.0
2018-May-16 04:00N 29°42' W 095°02'0 0.0
2018-May-16 03:30N 29°42' W 095°02'0 0.0
2018-May-16 03:00N 29°42' W 095°02'0 0.0
2018-May-16 02:29N 29°42' W 095°02'0 0.0
2018-May-16 01:59N 29°42' W 095°02'0 0.0
2018-May-16 01:29N 29°42' W 095°02'1 1.0
2018-May-16 01:00N 29°42' W 095°02'2 4.1
2018-May-16 00:30N 29°42' W 094°60'3 6.0
2018-May-16 00:00N 29°39' W 094°58'2 4.6
2018-May-15 23:30N 29°37' W 094°59'2 4.8
2018-May-15 23:00N 29°37' W 095°01'0 0.1
2018-May-15 22:30N 29°37' W 095°01'0 0.0
2018-May-15 22:00N 29°37' W 095°01'0 0.0
2018-May-15 21:28N 29°37' W 095°01'0 0.0
2018-May-15 21:00N 29°37' W 095°01'0 0.0
2018-May-15 20:30N 29°37' W 095°01'0 0.0
2018-May-15 20:00N 29°37' W 095°01'0 0.0
2018-May-15 19:30N 29°37' W 095°01'0 0.0
2018-May-15 19:00N 29°37' W 095°01'0 0.0
2018-May-15 18:29N 29°37' W 095°01'0 0.0
2018-May-15 18:00N 29°37' W 095°01'0 0.0
2018-May-15 17:30N 29°37' W 095°01'0 0.0
2018-May-15 16:59N 29°37' W 095°01'0 0.0
2018-May-15 16:30N 29°37' W 095°01'0 0.0
2018-May-15 16:00N 29°37' W 095°01'0 0.0
2018-May-15 15:30N 29°37' W 095°01'0 0.0
2018-May-15 14:49N 29°37' W 095°01'0 0.0
2018-May-15 14:30N 29°37' W 095°01'0 0.0
2018-May-15 14:00N 29°37' W 095°01'0 0.0
2018-May-15 13:30N 29°37' W 095°01'0 0.0
2018-May-15 13:00N 29°37' W 095°01'0 0.0
2018-May-15 12:30N 29°37' W 095°01'0 0.0
2018-May-15 11:59N 29°37' W 095°01'0 0.0
2018-May-15 11:30N 29°37' W 095°01'1 1.2
2018-May-15 11:00N 29°37' W 095°01'3 5.8
2018-May-15 10:30N 29°38' W 094°58'4 7.4
2018-May-15 10:00N 29°41' W 094°59'3 6.7
2018-May-15 09:30N 29°44' W 095°02'4 6.9
2018-May-15 09:00N 29°46' W 095°05'1 2.4
2018-May-15 08:30N 29°47' W 095°05'0 0.0
2018-May-15 08:00N 29°47' W 095°05'0 0.0
2018-May-15 07:28N 29°47' W 095°05'0 0.2
2018-May-15 07:00N 29°47' W 095°05'0 0.3
2018-May-15 06:30N 29°47' W 095°05'0 0.0
2018-May-15 06:00N 29°47' W 095°05'1 1.5
2018-May-15 05:30N 29°47' W 095°05'2 3.5
2018-May-15 05:00N 29°46' W 095°06'0 0.2
2018-May-15 04:27N 29°46' W 095°06'0 0.0
2018-May-15 03:59N 29°46' W 095°06'1 1.6
2018-May-15 03:29N 29°46' W 095°05'2 3.3
2018-May-15 02:58N 29°47' W 095°05'0 0.2
2018-May-15 02:30N 29°47' W 095°05'2 4.2
2018-May-15 02:00N 29°45' W 095°04'3 6.6
2018-May-15 01:29N 29°43' W 095°01'3 6.9
2018-May-15 01:00N 29°40' W 094°59'4 7.4
2018-May-15 00:30N 29°37' W 094°57'4 7.6
2018-May-15 00:00N 29°34' W 094°55'5 7.6
2018-May-14 23:23N 29°30' W 094°52'3 7.7
2018-May-14 22:57N 29°27' W 094°50'4 7.7
2018-May-14 22:28N 29°23' W 094°49'3 5.6
2018-May-14 22:00N 29°21' W 094°49'4 7.3
2018-May-14 21:30N 29°19' W 094°53'3 6.5
2018-May-14 21:00N 29°17' W 094°56'3 7.0
2018-May-14 20:30N 29°16' W 094°60'4 7.2
2018-May-14 20:00N 29°13' W 095°02'4 7.3
2018-May-14 19:30N 29°11' W 095°05'3 5.3
2018-May-14 19:00N 29°11' W 095°09'3 6.6
2018-May-14 18:30N 29°13' W 095°12'3 5.1
2018-May-14 18:00N 29°15' W 095°13'0 0.1
2018-May-14 17:29N 29°15' W 095°13'0 1.0
2018-May-14 17:00N 29°14' W 095°13'1 1.6
2018-May-14 16:30N 29°13' W 095°13'1 1.5
2018-May-14 16:00N 29°13' W 095°13'1 2.9
2018-May-14 15:30N 29°14' W 095°13'0 0.0
2018-May-14 15:00N 29°14' W 095°13'0 0.0
2018-May-14 14:29N 29°14' W 095°13'0 0.0
2018-May-14 14:00N 29°14' W 095°13'0 0.0
2018-May-14 13:30N 29°14' W 095°13'1 1.4
2018-May-14 13:00N 29°14' W 095°13'3 5.6
2018-May-14 12:30N 29°12' W 095°10'3 6.2
2018-May-14 12:00N 29°10' W 095°08'3 6.6
2018-May-14 11:30N 29°11' W 095°05'3 6.4
2018-May-14 11:00N 29°14' W 095°02'3 7.0
2018-May-14 10:30N 29°16' W 094°59'4 7.4
2018-May-14 10:00N 29°17' W 094°55'4 6.9
2018-May-14 09:27N 29°19' W 094°51'4 6.8
2018-May-14 08:56N 29°22' W 094°48'2 4.6
2018-May-14 08:30N 29°24' W 094°49'7 6.7
2018-May-14 07:32N 29°30' W 094°52'0 7.2
2018-May-14 07:29N 29°30' W 094°52'3 7.0
2018-May-14 07:00N 29°33' W 094°54'4 7.2
2018-May-14 06:30N 29°36' W 094°57'4 7.6
2018-May-14 06:00N 29°39' W 094°58'4 7.3
2018-May-14 05:30N 29°42' W 095°01'6 0.4
2018-May-13 13:03N 29°47' W 095°05'5 0.6
2018-May-13 04:51N 29°43' W 095°01'1 0.3
2018-May-13 00:51N 29°42' W 095°02'0 0.0
2018-May-12 17:09N 29°42' W 095°02'0 0.0
2018-May-12 16:47N 29°42' W 095°02'1 2.0
2018-May-12 16:30N 29°42' W 095°02'3 5.7
2018-May-12 16:00N 29°41' W 094°59'3 6.5
2018-May-12 15:30N 29°38' W 094°58'3 5.0
2018-May-12 15:00N 29°37' W 095°00'1 2.1
2018-May-12 14:29N 29°37' W 095°01'0 0.0
2018-May-12 14:00N 29°37' W 095°01'0 0.0
2018-May-12 13:30N 29°37' W 095°01'0 0.0
2018-May-12 13:00N 29°37' W 095°01'0 0.0
2018-May-12 12:30N 29°37' W 095°01'0 0.0
2018-May-12 12:00N 29°37' W 095°01'0 0.0
2018-May-12 11:30N 29°37' W 095°01'0 0.0
2018-May-12 10:58N 29°37' W 095°01'0 0.0
2018-May-12 10:30N 29°37' W 095°01'0 0.0
2018-May-12 10:00N 29°37' W 095°01'0 0.0
2018-May-12 09:30N 29°37' W 095°01'0 0.0
2018-May-12 08:59N 29°37' W 095°01'0 0.0
2018-May-12 08:28N 29°37' W 095°01'0 0.0
2018-May-12 08:00N 29°37' W 095°01'0 0.0
2018-May-12 07:27N 29°37' W 095°01'0 0.0
2018-May-12 07:00N 29°37' W 095°01'0 0.0
2018-May-12 06:30N 29°37' W 095°01'0 0.0
2018-May-12 05:56N 29°37' W 095°01'0 0.0
2018-May-12 05:30N 29°37' W 095°01'3 5.0
2018-May-12 05:00N 29°37' W 094°59'3 5.6
2018-May-12 04:30N 29°40' W 094°58'4 7.3
2018-May-12 03:59N 29°43' W 095°01'6 1.5
2018-May-12 00:24N 29°47' W 095°05'0 0.4
2018-May-11 23:18N 29°47' W 095°04'1 0.9
2018-May-11 21:59N 29°46' W 095°05'2 1.4
2018-May-11 20:46N 29°47' W 095°05'1 0.4
2018-May-11 19:18N 29°47' W 095°04'3 5.3
2018-May-11 18:41N 29°44' W 095°03'2 5.9
2018-May-11 18:20N 29°42' W 095°01'2 5.0
2018-May-11 18:00N 29°43' W 095°03'0 0.0
2018-May-11 16:23N 29°43' W 095°03'2 0.2
2018-May-11 06:45N 29°42' W 095°01'1 5.2
2018-May-11 06:29N 29°44' W 095°02'4 1.2
2018-May-11 02:54N 29°47' W 095°05'1 1.7
2018-May-11 02:28N 29°47' W 095°05'1 0.1
2018-May-10 16:56N 29°47' W 095°04'0 0.5
2018-May-10 16:19N 29°47' W 095°05'0 0.2
2018-May-10 15:55N 29°47' W 095°05'0 0.4
2018-May-10 15:29N 29°47' W 095°05'0 0.0
2018-May-10 14:58N 29°47' W 095°05'0 0.0
2018-May-10 14:25N 29°47' W 095°05'0 0.0
2018-May-10 14:00N 29°47' W 095°05'0 0.0
2018-May-10 13:27N 29°47' W 095°05'0 0.0
2018-May-10 13:00N 29°47' W 095°05'0 0.0
2018-May-10 12:30N 29°47' W 095°05'0 0.0
2018-May-10 12:00N 29°47' W 095°05'0 0.2
2018-May-10 11:30N 29°47' W 095°05'0 0.1
2018-May-10 11:00N 29°47' W 095°05'0 0.1
2018-May-10 10:30N 29°47' W 095°05'  
Track history (hours):
 
Tides and Currents Weather Stations Pressure Air Temp Water Temp Dewpoint Dewpoint Depression Visibility Wind Speed Wind Dir Waves Ship Positions

Rick Pumphrey

Owner: Blessey Enterprises, Inc., Harahan, LA. More information available from US FCC via Universal Licensing System and Coast Guard Vessel Documentation Center.

Last reported at 2018-May-20 10:15 UTC. Time now 2018-May-20 17:49 UTC.
Position N 29°44' W 095°01'.

; draft 2.4 m.

Type: Tug. MMSI: 367495480.

Date/timePositionNaut miles runAvg speedWind from/ knotsBaromVisibWave heightAir tempDewpointWater temp
2018-May-20 10:15N 29°44' W 095°01'1 3.3
2018-May-20 09:58N 29°44' W 095°02'3 0.2
2018-May-19 14:11N 29°45' W 095°06'5 3.3
2018-May-19 12:47N 29°43' W 095°01'1 4.0
2018-May-19 12:30N 29°42' W 095°02'0 0.0
2018-May-19 07:47N 29°42' W 095°02'0 0.0
2018-May-19 07:17N 29°42' W 095°02'0 0.0
2018-May-18 21:43N 29°42' W 095°02'0 0.0
2018-May-18 21:29N 29°42' W 095°02'0 0.0
2018-May-18 20:57N 29°42' W 095°02'0 0.0
2018-May-18 11:09N 29°42' W 095°02'0 0.0
2018-May-18 10:30N 29°42' W 095°02'0 0.9
2018-May-18 10:00N 29°43' W 095°03'0 0.7
2018-May-18 09:30N 29°43' W 095°03'0 0.0
2018-May-18 09:00N 29°43' W 095°03'0 0.0
2018-May-18 08:30N 29°43' W 095°03'0 0.0
2018-May-18 08:00N 29°43' W 095°03'0 0.0
2018-May-18 07:30N 29°43' W 095°03'0 0.0
2018-May-18 06:57N 29°43' W 095°03'0 0.0
2018-May-18 06:30N 29°43' W 095°03'0 0.0
2018-May-18 06:00N 29°43' W 095°03'0 0.0
2018-May-18 05:29N 29°43' W 095°03'0 0.0
2018-May-18 05:00N 29°43' W 095°03'0 0.0
2018-May-18 04:30N 29°43' W 095°03'0 0.0
2018-May-18 04:00N 29°43' W 095°03'0 0.0
2018-May-18 03:30N 29°43' W 095°03'0 0.0
2018-May-18 03:00N 29°43' W 095°03'0 0.0
2018-May-18 02:30N 29°43' W 095°03'0 0.0
2018-May-18 02:00N 29°43' W 095°03'0 0.1
2018-May-18 00:53N 29°43' W 095°03'2 0.2
2018-May-17 14:28N 29°42' W 095°01'2 4.8
2018-May-17 14:00N 29°44' W 095°03'3 6.3
2018-May-17 13:30N 29°47' W 095°04'0 0.9
2018-May-17 13:00N 29°47' W 095°05'0 0.0
2018-May-17 12:29N 29°47' W 095°05'0 0.0
2018-May-17 11:56N 29°47' W 095°05'0 0.0
2018-May-17 11:00N 29°47' W 095°05'0 0.2
2018-May-17 10:30N 29°47' W 095°05'0 0.0
2018-May-17 10:00N 29°47' W 095°05'0 0.0
2018-May-17 09:30N 29°47' W 095°05'0 0.0
2018-May-17 09:00N 29°47' W 095°05'0 0.0
2018-May-17 08:30N 29°47' W 095°05'0 0.0
2018-May-17 08:00N 29°47' W 095°05'0 0.0
2018-May-17 06:46N 29°47' W 095°05'0 0.0
2018-May-17 06:30N 29°47' W 095°05'0 0.0
2018-May-17 05:58N 29°47' W 095°05'0 0.0
2018-May-17 05:25N 29°47' W 095°05'0 0.3
2018-May-17 05:00N 29°47' W 095°05'0 0.2
2018-May-17 04:29N 29°47' W 095°05'0 0.1
2018-May-17 03:59N 29°47' W 095°05'0 0.1
2018-May-17 03:30N 29°47' W 095°05'0 0.0
2018-May-17 03:00N 29°47' W 095°05'0 0.0
2018-May-17 02:30N 29°47' W 095°05'0 0.0
2018-May-17 02:00N 29°47' W 095°05'0 0.0
2018-May-17 01:30N 29°47' W 095°05'5 0.5
2018-May-16 15:22N 29°43' W 095°01'1 3.3
2018-May-16 14:58N 29°42' W 095°02'0 0.0
2018-May-16 14:30N 29°42' W 095°02'0 0.0
2018-May-16 13:58N 29°42' W 095°02'0 0.0
2018-May-16 13:30N 29°42' W 095°02'0 0.0
2018-May-16 12:56N 29°42' W 095°02'0 0.0
2018-May-16 12:30N 29°42' W 095°02'0 0.0
2018-May-16 12:00N 29°42' W 095°02'0 0.0
2018-May-16 11:30N 29°42' W 095°02'0 0.0
2018-May-16 11:00N 29°42' W 095°02'0 0.0
2018-May-16 10:30N 29°42' W 095°02'0 0.0
2018-May-16 10:00N 29°42' W 095°02'0 0.0
2018-May-16 09:30N 29°42' W 095°02'0 0.0
2018-May-16 09:00N 29°42' W 095°02'0 0.0
2018-May-16 08:30N 29°42' W 095°02'0 0.0
2018-May-16 08:00N 29°42' W 095°02'0 0.0
2018-May-16 07:30N 29°42' W 095°02'0 0.0
2018-May-16 07:00N 29°42' W 095°02'0 0.0
2018-May-16 06:30N 29°42' W 095°02'0 0.0
2018-May-16 06:00N 29°42' W 095°02'0 0.0
2018-May-16 05:30N 29°42' W 095°02'0 0.0
2018-May-16 05:00N 29°42' W 095°02'0 0.0
2018-May-16 04:30N 29°42' W 095°02'0 0.0
2018-May-16 04:00N 29°42' W 095°02'0 0.0
2018-May-16 03:30N 29°42' W 095°02'0 0.0
2018-May-16 03:00N 29°42' W 095°02'0 0.0
2018-May-16 02:29N 29°42' W 095°02'0 0.0
2018-May-16 01:59N 29°42' W 095°02'0 0.0
2018-May-16 01:29N 29°42' W 095°02'1 1.0
2018-May-16 01:00N 29°42' W 095°02'2 4.1
2018-May-16 00:30N 29°42' W 094°60'3 6.0
2018-May-16 00:00N 29°39' W 094°58'2 4.6
2018-May-15 23:30N 29°37' W 094°59'2 4.8
2018-May-15 23:00N 29°37' W 095°01'0 0.1
2018-May-15 22:30N 29°37' W 095°01'0 0.0
2018-May-15 22:00N 29°37' W 095°01'0 0.0
2018-May-15 21:28N 29°37' W 095°01'0 0.0
2018-May-15 21:00N 29°37' W 095°01'0 0.0
2018-May-15 20:30N 29°37' W 095°01'0 0.0
2018-May-15 20:00N 29°37' W 095°01'0 0.0
2018-May-15 19:30N 29°37' W 095°01'0 0.0
2018-May-15 19:00N 29°37' W 095°01'0 0.0
2018-May-15 18:29N 29°37' W 095°01'0 0.0
2018-May-15 18:00N 29°37' W 095°01'0 0.0
2018-May-15 17:30N 29°37' W 095°01'0 0.0
2018-May-15 16:59N 29°37' W 095°01'0 0.0
2018-May-15 16:30N 29°37' W 095°01'0 0.0
2018-May-15 16:00N 29°37' W 095°01'0 0.0
2018-May-15 15:30N 29°37' W 095°01'0 0.0
2018-May-15 14:49N 29°37' W 095°01'0 0.0
2018-May-15 14:30N 29°37' W 095°01'0 0.0
2018-May-15 14:00N 29°37' W 095°01'0 0.0
2018-May-15 13:30N 29°37' W 095°01'0 0.0
2018-May-15 13:00N 29°37' W 095°01'0 0.0
2018-May-15 12:30N 29°37' W 095°01'0 0.0
2018-May-15 11:59N 29°37' W 095°01'0 0.0
2018-May-15 11:30N 29°37' W 095°01'1 1.2
2018-May-15 11:00N 29°37' W 095°01'3 5.8
2018-May-15 10:30N 29°38' W 094°58'4 7.4
2018-May-15 10:00N 29°41' W 094°59'3 6.7
2018-May-15 09:30N 29°44' W 095°02'4 6.9
2018-May-15 09:00N 29°46' W 095°05'1 2.4
2018-May-15 08:30N 29°47' W 095°05'0 0.0
2018-May-15 08:00N 29°47' W 095°05'0 0.0
2018-May-15 07:28N 29°47' W 095°05'0 0.2
2018-May-15 07:00N 29°47' W 095°05'0 0.3
2018-May-15 06:30N 29°47' W 095°05'0 0.0
2018-May-15 06:00N 29°47' W 095°05'1 1.5
2018-May-15 05:30N 29°47' W 095°05'2 3.5
2018-May-15 05:00N 29°46' W 095°06'0 0.2
2018-May-15 04:27N 29°46' W 095°06'0 0.0
2018-May-15 03:59N 29°46' W 095°06'1 1.6
2018-May-15 03:29N 29°46' W 095°05'2 3.3
2018-May-15 02:58N 29°47' W 095°05'0 0.2
2018-May-15 02:30N 29°47' W 095°05'2 4.2
2018-May-15 02:00N 29°45' W 095°04'3 6.6
2018-May-15 01:29N 29°43' W 095°01'3 6.9
2018-May-15 01:00N 29°40' W 094°59'4 7.4
2018-May-15 00:30N 29°37' W 094°57'4 7.6
2018-May-15 00:00N 29°34' W 094°55'5 7.6
2018-May-14 23:23N 29°30' W 094°52'3 7.7
2018-May-14 22:57N 29°27' W 094°50'4 7.7
2018-May-14 22:28N 29°23' W 094°49'3 5.6
2018-May-14 22:00N 29°21' W 094°49'4 7.3
2018-May-14 21:30N 29°19' W 094°53'3 6.5
2018-May-14 21:00N 29°17' W 094°56'3 7.0
2018-May-14 20:30N 29°16' W 094°60'4 7.2
2018-May-14 20:00N 29°13' W 095°02'4 7.3
2018-May-14 19:30N 29°11' W 095°05'3 5.3
2018-May-14 19:00N 29°11' W 095°09'3 6.6
2018-May-14 18:30N 29°13' W 095°12'3 5.1
2018-May-14 18:00N 29°15' W 095°13'0 0.1
2018-May-14 17:29N 29°15' W 095°13'0 1.0
2018-May-14 17:00N 29°14' W 095°13'1 1.6
2018-May-14 16:30N 29°13' W 095°13'1 1.5
2018-May-14 16:00N 29°13' W 095°13'1 2.9
2018-May-14 15:30N 29°14' W 095°13'0 0.0
2018-May-14 15:00N 29°14' W 095°13'0 0.0
2018-May-14 14:29N 29°14' W 095°13'0 0.0
2018-May-14 14:00N 29°14' W 095°13'0 0.0
2018-May-14 13:30N 29°14' W 095°13'1 1.4
2018-May-14 13:00N 29°14' W 095°13'3 5.6
2018-May-14 12:30N 29°12' W 095°10'3 6.2
2018-May-14 12:00N 29°10' W 095°08'3 6.6
2018-May-14 11:30N 29°11' W 095°05'3 6.4
2018-May-14 11:00N 29°14' W 095°02'3 7.0
2018-May-14 10:30N 29°16' W 094°59'4 7.4
2018-May-14 10:00N 29°17' W 094°55'4 6.9
2018-May-14 09:27N 29°19' W 094°51'4 6.8
2018-May-14 08:56N 29°22' W 094°48'2 4.6
2018-May-14 08:30N 29°24' W 094°49'7 6.7
2018-May-14 07:32N 29°30' W 094°52'0 7.2
2018-May-14 07:29N 29°30' W 094°52'3 7.0
2018-May-14 07:00N 29°33' W 094°54'4 7.2
2018-May-14 06:30N 29°36' W 094°57'4 7.6
2018-May-14 06:00N 29°39' W 094°58'4 7.3
2018-May-14 05:30N 29°42' W 095°01'6 0.4
2018-May-13 13:03N 29°47' W 095°05'5 0.6
2018-May-13 04:51N 29°43' W 095°01'1 0.3
2018-May-13 00:51N 29°42' W 095°02'0 0.0
2018-May-12 17:09N 29°42' W 095°02'0 0.0
2018-May-12 16:47N 29°42' W 095°02'1 2.0
2018-May-12 16:30N 29°42' W 095°02'3 5.7
2018-May-12 16:00N 29°41' W 094°59'3 6.5
2018-May-12 15:30N 29°38' W 094°58'3 5.0
2018-May-12 15:00N 29°37' W 095°00'1 2.1
2018-May-12 14:29N 29°37' W 095°01'0 0.0
2018-May-12 14:00N 29°37' W 095°01'0 0.0
2018-May-12 13:30N 29°37' W 095°01'0 0.0
2018-May-12 13:00N 29°37' W 095°01'0 0.0
2018-May-12 12:30N 29°37' W 095°01'0 0.0
2018-May-12 12:00N 29°37' W 095°01'0 0.0
2018-May-12 11:30N 29°37' W 095°01'0 0.0
2018-May-12 10:58N 29°37' W 095°01'0 0.0
2018-May-12 10:30N 29°37' W 095°01'0 0.0
2018-May-12 10:00N 29°37' W 095°01'0 0.0
2018-May-12 09:30N 29°37' W 095°01'0 0.0
2018-May-12 08:59N 29°37' W 095°01'0 0.0
2018-May-12 08:28N 29°37' W 095°01'0 0.0
2018-May-12 08:00N 29°37' W 095°01'0 0.0
2018-May-12 07:27N 29°37' W 095°01'0 0.0
2018-May-12 07:00N 29°37' W 095°01'0 0.0
2018-May-12 06:30N 29°37' W 095°01'0 0.0
2018-May-12 05:56N 29°37' W 095°01'0 0.0
2018-May-12 05:30N 29°37' W 095°01'3 5.0
2018-May-12 05:00N 29°37' W 094°59'3 5.6
2018-May-12 04:30N 29°40' W 094°58'4 7.3
2018-May-12 03:59N 29°43' W 095°01'6 1.5
2018-May-12 00:24N 29°47' W 095°05'0 0.4
2018-May-11 23:18N 29°47' W 095°04'1 0.9
2018-May-11 21:59N 29°46' W 095°05'2 1.4
2018-May-11 20:46N 29°47' W 095°05'1 0.4
2018-May-11 19:18N 29°47' W 095°04'3 5.3
2018-May-11 18:41N 29°44' W 095°03'2 5.9
2018-May-11 18:20N 29°42' W 095°01'2 5.0
2018-May-11 18:00N 29°43' W 095°03'0 0.0
2018-May-11 16:23N 29°43' W 095°03'2 0.2
2018-May-11 06:45N 29°42' W 095°01'1 5.2
2018-May-11 06:29N 29°44' W 095°02'4 1.2
2018-May-11 02:54N 29°47' W 095°05'1 1.7
2018-May-11 02:28N 29°47' W 095°05'1 0.1
2018-May-10 16:56N 29°47' W 095°04'0 0.5
2018-May-10 16:19N 29°47' W 095°05'0 0.2
2018-May-10 15:55N 29°47' W 095°05'0 0.4
2018-May-10 15:29N 29°47' W 095°05'0 0.0
2018-May-10 14:58N 29°47' W 095°05'0 0.0
2018-May-10 14:25N 29°47' W 095°05'0 0.0
2018-May-10 14:00N 29°47' W 095°05'0 0.0
2018-May-10 13:27N 29°47' W 095°05'0 0.0
2018-May-10 13:00N 29°47' W 095°05'0 0.0
2018-May-10 12:30N 29°47' W 095°05'0 0.0
2018-May-10 12:00N 29°47' W 095°05'0 0.2
2018-May-10 11:30N 29°47' W 095°05'0 0.1
2018-May-10 11:00N 29°47' W 095°05'0 0.1
2018-May-10 10:30N 29°47' W 095°05'  

Dump ship's entire track history